Time;durP1;ratioP1;P1;durP2;ratioP2;P2;SDS_P1;SDS_P2;PMS_P1;PMS_P2;Temp;Humidity;BMP_temperature;BMP_pressure;BME280_temperature;BME280_humidity;BME280_pressure;Samples;Min_cycle;Max_cycle;Signal;HPM_P1;HPM_P2
2021/11/21 00:01:51;;;;;;;3.13;2.03;;;9.40;99.90;;;;;;4973764;28;20192;-85
2021/11/21 00:04:17;;;;;;;4.03;1.70;;;9.40;99.90;;;;;;4986928;28;20261;-80
2021/11/21 00:06:42;;;;;;;6.10;1.57;;;9.40;99.90;;;;;;4973431;28;20179;-84
2021/11/21 00:09:08;;;;;;;4.03;2.17;;;9.40;99.90;;;;;;4988899;28;20172;-80
2021/11/21 00:11:34;;;;;;;5.60;2.07;;;9.40;99.90;;;;;;4973805;28;20172;-81
2021/11/21 00:14:02;;;;;;;3.67;2.23;;;9.40;99.90;;;;;;4973387;28;20171;-81
2021/11/21 00:16:27;;;;;;;4.40;2.57;;;9.40;99.90;;;;;;4973403;28;20177;-81
2021/11/21 00:18:53;;;;;;;4.30;2.50;;;9.40;99.90;;;;;;4973381;28;20420;-85
2021/11/21 00:21:18;;;;;;;6.50;2.00;;;9.40;99.90;;;;;;4988108;28;20186;-80
2021/11/21 00:23:44;;;;;;;5.97;2.43;;;9.50;99.90;;;;;;4992343;28;20259;-82
2021/11/21 00:26:10;;;;;;;5.57;2.10;;;9.40;99.90;;;;;;4991690;28;20183;-81
2021/11/21 00:28:35;;;;;;;2.90;2.17;;;9.40;99.90;;;;;;4974985;28;20543;-82
2021/11/21 00:31:01;;;;;;;4.80;1.27;;;9.40;99.90;;;;;;4990724;28;20214;-81
2021/11/21 00:33:27;;;;;;;5.10;2.60;;;9.40;99.90;;;;;;4974970;28;20634;-80
2021/11/21 00:35:52;;;;;;;4.77;2.73;;;9.40;99.90;;;;;;4992937;28;20208;-81
2021/11/21 00:38:18;;;;;;;3.90;2.20;;;9.40;99.90;;;;;;4992588;28;20217;-82
2021/11/21 00:40:45;;;;;;;3.77;2.07;;;9.40;99.90;;;;;;4992451;28;20417;-82
2021/11/21 00:43:10;;;;;;;2.37;1.20;;;9.40;99.90;;;;;;4992328;28;20189;-80
2021/11/21 00:45:36;;;;;;;3.57;1.73;;;9.40;99.90;;;;;;4990587;28;20424;-81
2021/11/21 00:48:02;;;;;;;8.10;2.37;;;9.40;99.90;;;;;;4974946;28;20267;-86
2021/11/21 00:50:30;;;;;;;8.20;2.93;;;9.40;99.90;;;;;;4964481;28;20185;-82
2021/11/21 00:53:02;;;;;;;5.13;1.80;;;9.40;99.90;;;;;;4974912;28;20881;-82
2021/11/21 00:55:38;;;;;;;3.00;1.50;;;9.40;99.90;;;;;;4989498;28;21060;-82
2021/11/21 00:58:06;;;;;;;1.60;1.03;;;9.40;99.90;;;;;;4992083;28;20549;-81
2021/11/21 01:00:32;;;;;;;2.10;1.43;;;9.40;99.90;;;;;;4991809;28;20452;-81
2021/11/21 01:02:58;;;;;;;6.50;1.60;;;9.40;99.90;;;;;;4975127;28;20828;-81
2021/11/21 01:05:24;;;;;;;4.50;2.00;;;9.40;99.90;;;;;;4992279;28;20278;-78
2021/11/21 01:07:49;;;;;;;3.70;1.23;;;9.40;99.90;;;;;;4992077;28;20514;-80
2021/11/21 01:10:18;;;;;;;7.47;2.27;;;9.40;99.90;;;;;;4992282;28;20427;-84
2021/11/21 01:12:44;;;;;;;3.17;1.47;;;9.40;99.90;;;;;;4992150;28;20198;-82
2021/11/21 01:15:13;;;;;;;3.00;1.47;;;9.40;99.90;;;;;;4991911;28;20429;-83
2021/11/21 01:17:40;;;;;;;1.80;1.53;;;9.40;99.90;;;;;;4993150;28;20554;-82
2021/11/21 01:20:08;;;;;;;4.70;2.07;;;9.40;99.90;;;;;;4994975;28;20775;-81
2021/11/21 01:22:35;;;;;;;9.37;1.90;;;9.40;99.90;;;;;;4995458;28;20433;-81
2021/11/21 01:25:02;;;;;;;3.97;1.90;;;9.40;99.90;;;;;;4994846;28;21018;-82
2021/11/21 01:27:27;;;;;;;5.20;2.23;;;9.40;99.90;;;;;;4995371;28;20426;-81
2021/11/21 01:29:53;;;;;;;7.20;1.97;;;9.40;99.90;;;;;;4978101;28;20432;-81
2021/11/21 01:32:19;;;;;;;6.57;1.53;;;9.40;99.90;;;;;;4995620;28;20175;-82
2021/11/21 01:34:44;;;;;;;2.57;1.50;;;9.40;99.90;;;;;;4995664;28;20182;-81
2021/11/21 01:37:10;;;;;;;3.93;2.23;;;9.40;99.90;;;;;;4995652;28;20317;-81
2021/11/21 01:39:36;;;;;;;4.17;1.67;;;9.40;99.90;;;;;;4978182;28;20188;-83
2021/11/21 01:42:02;;;;;;;3.30;1.23;;;9.40;99.90;;;;;;4995547;28;20736;-79
2021/11/21 01:44:27;;;;;;;4.40;1.73;;;9.40;99.90;;;;;;4995333;28;20274;-80
2021/11/21 01:46:53;;;;;;;4.00;2.40;;;9.40;99.90;;;;;;4995337;28;20524;-84
2021/11/21 01:49:19;;;;;;;3.80;2.30;;;9.40;99.90;;;;;;4977234;28;20639;-82
2021/11/21 01:51:46;;;;;;;5.67;2.40;;;9.30;99.90;;;;;;4977203;28;20211;-80
2021/11/21 01:54:16;;;;;;;6.50;2.63;;;9.30;99.90;;;;;;4995089;28;20511;-79
2021/11/21 01:56:41;;;;;;;5.23;2.93;;;9.30;99.90;;;;;;4982776;28;21007;-79
2021/11/21 01:59:08;;;;;;;6.20;3.37;;;9.30;99.90;;;;;;4975135;28;20423;-79
2021/11/21 02:01:34;;;;;;;6.37;3.47;;;9.30;99.90;;;;;;4974718;28;20180;-79
2021/11/21 02:04:00;;;;;;;4.90;2.63;;;9.30;99.90;;;;;;4975780;28;20425;-79
2021/11/21 02:06:26;;;;;;;6.30;3.50;;;9.30;99.90;;;;;;4975588;28;20415;-80
2021/11/21 02:08:53;;;;;;;5.93;3.23;;;9.30;99.90;;;;;;4975680;28;20554;-81
2021/11/21 02:11:23;;;;;;;3.97;3.27;;;9.30;99.90;;;;;;4975466;28;20283;-79
2021/11/21 02:13:50;;;;;;;6.63;4.50;;;9.30;99.90;;;;;;4975217;28;20421;-79
2021/11/21 02:16:18;;;;;;;6.43;3.33;;;9.30;99.90;;;;;;4975738;28;20797;-81
2021/11/21 02:18:45;;;;;;;5.20;3.93;;;9.40;99.90;;;;;;4975614;28;21051;-82
2021/11/21 02:21:14;;;;;;;6.83;3.30;;;9.30;99.90;;;;;;4975549;28;20807;-79
2021/11/21 02:23:40;;;;;;;7.47;4.90;;;9.30;99.90;;;;;;4975650;28;20431;-79
2021/11/21 02:26:07;;;;;;;7.37;3.43;;;9.30;99.90;;;;;;4975407;28;20411;-80
2021/11/21 02:28:34;;;;;;;8.23;3.53;;;9.30;99.90;;;;;;4974701;28;20423;-80
2021/11/21 02:30:59;;;;;;;6.07;3.47;;;9.30;99.90;;;;;;4975031;28;20522;-86
2021/11/21 02:33:25;;;;;;;7.47;4.93;;;9.40;99.90;;;;;;4976590;28;20517;-86
2021/11/21 02:35:55;;;;;;;8.77;5.13;;;9.40;99.90;;;;;;4958728;28;20642;-84
2021/11/21 02:38:23;;;;;;;8.17;5.60;;;9.40;99.90;;;;;;4975557;28;20672;-83
2021/11/21 02:40:49;;;;;;;12.70;6.37;;;9.40;99.90;;;;;;4975701;28;20494;-84
2021/11/21 02:43:17;;;;;;;9.57;5.80;;;9.40;99.90;;;;;;4975700;28;20450;-84
2021/11/21 02:45:43;;;;;;;7.37;6.10;;;9.40;99.90;;;;;;4975287;28;20983;-84
2021/11/21 02:48:10;;;;;;;8.30;5.77;;;9.40;99.90;;;;;;4975598;28;20490;-83
2021/11/21 02:50:35;;;;;;;9.60;6.23;;;9.40;99.90;;;;;;4975545;28;20426;-84
2021/11/21 02:53:01;;;;;;;8.60;6.67;;;9.40;99.90;;;;;;4975463;28;20415;-84
2021/11/21 02:55:32;;;;;;;12.17;7.90;;;9.40;99.90;;;;;;4975501;28;20194;-84
2021/11/21 02:57:59;;;;;;;10.77;8.70;;;9.40;99.90;;;;;;4994667;28;20568;-84
2021/11/21 03:00:25;;;;;;;10.90;8.33;;;9.40;99.90;;;;;;4994503;28;20814;-84
2021/11/21 03:02:51;;;;;;;10.97;7.33;;;9.40;99.90;;;;;;4994663;28;20508;-83
2021/11/21 03:05:19;;;;;;;11.13;8.60;;;9.40;99.90;;;;;;4994576;28;20454;-85
2021/11/21 03:07:45;;;;;;;12.77;9.10;;;9.30;99.90;;;;;;4993487;28;20183;-83
2021/11/21 03:10:14;;;;;;;12.47;8.47;;;9.20;99.90;;;;;;4994532;28;20751;-83
2021/11/21 03:12:40;;;;;;;10.70;7.60;;;9.20;99.90;;;;;;4994558;28;20795;-83
2021/11/21 03:15:06;;;;;;;11.93;7.80;;;9.20;99.90;;;;;;4994957;28;20413;-85
2021/11/21 03:17:32;;;;;;;12.07;8.13;;;9.10;99.90;;;;;;4996247;28;20206;-85
2021/11/21 03:19:58;;;;;;;12.00;9.40;;;9.10;99.90;;;;;;4995788;28;20883;-86
2021/11/21 03:22:23;;;;;;;12.63;8.83;;;9.10;99.90;;;;;;4997216;28;20428;-85
2021/11/21 03:24:49;;;;;;;14.33;10.10;;;9.10;99.90;;;;;;4996744;28;20164;-86
2021/11/21 03:27:14;;;;;;;15.10;10.37;;;9.10;99.90;;;;;;4996106;28;20178;-89
2021/11/21 03:29:40;;;;;;;15.57;8.70;;;9.10;99.90;;;;;;4995678;28;20624;-89
2021/11/21 03:32:06;;;;;;;14.13;10.37;;;9.10;99.90;;;;;;4995672;28;20512;-91
2021/11/21 03:34:36;;;;;;;15.47;10.07;;;9.00;99.90;;;;;;4994505;28;20467;-87
2021/11/21 03:37:02;;;;;;;12.40;10.10;;;9.10;99.90;;;;;;4977761;28;20457;-85
2021/11/21 03:39:28;;;;;;;15.80;11.13;;;9.00;99.90;;;;;;4995481;28;20433;-87
2021/11/21 03:41:54;;;;;;;14.00;9.97;;;9.00;99.90;;;;;;4994589;28;20185;-91
2021/11/21 03:44:20;;;;;;;16.00;10.23;;;9.00;99.90;;;;;;4993393;28;20425;-88
2021/11/21 03:46:45;;;;;;;12.90;9.90;;;9.00;99.90;;;;;;4994964;28;20419;-90
2021/11/21 03:49:13;;;;;;;16.20;9.67;;;9.00;99.90;;;;;;4994705;28;20170;-95
2021/11/21 03:51:38;;;;;;;12.67;9.63;;;9.00;99.90;;;;;;4994067;28;20187;-94
2021/11/21 03:54:04;;;;;;;14.53;10.40;;;9.00;99.90;;;;;;4995388;28;20842;-93
2021/11/21 03:56:29;;;;;;;11.60;8.73;;;9.00;99.90;;;;;;4995390;28;20614;-93
2021/11/21 03:58:55;;;;;;;13.23;10.33;;;9.00;99.90;;;;;;4994810;28;20605;-92
2021/11/21 04:01:21;;;;;;;12.30;8.90;;;9.00;99.90;;;;;;4995013;28;20175;-94
2021/11/21 04:03:46;;;;;;;10.93;8.97;;;9.00;99.90;;;;;;4994909;28;20183;-94
2021/11/21 04:06:12;;;;;;;12.47;8.70;;;9.00;99.90;;;;;;4994776;28;20179;-94
2021/11/21 04:08:39;;;;;;;9.30;7.40;;;9.00;99.90;;;;;;4995049;28;20214;-93
2021/11/21 04:11:04;;;;;;;10.90;7.33;;;9.00;99.90;;;;;;4995156;28;20186;-93
2021/11/21 04:13:30;;;;;;;9.40;7.13;;;9.00;99.90;;;;;;4994525;28;20419;-93
2021/11/21 04:15:56;;;;;;;10.30;6.90;;;8.90;99.90;;;;;;4994635;28;20179;-93
2021/11/21 04:18:22;;;;;;;6.50;5.57;;;8.90;99.90;;;;;;4994287;28;20215;-88
2021/11/21 04:20:47;;;;;;;7.97;4.77;;;8.90;99.90;;;;;;4993907;28;20173;-93
2021/11/21 04:23:13;;;;;;;5.93;3.47;;;8.90;99.90;;;;;;4994687;28;20175;-94
2021/11/21 04:25:39;;;;;;;6.40;3.70;;;8.90;99.90;;;;;;4994825;28;20174;-94
2021/11/21 04:28:05;;;;;;;7.67;3.53;;;8.90;99.90;;;;;;4994783;28;20176;-93
2021/11/21 04:30:31;;;;;;;6.07;3.40;;;8.90;99.90;;;;;;4994482;28;20182;-93
2021/11/21 04:32:56;;;;;;;4.63;3.03;;;8.90;99.90;;;;;;4994611;28;20425;-94
2021/11/21 04:35:22;;;;;;;5.37;3.90;;;8.90;99.90;;;;;;4994619;28;20417;-95
2021/11/21 04:37:48;;;;;;;3.63;2.40;;;8.90;99.90;;;;;;4994616;28;20756;-94
2021/11/21 04:40:15;;;;;;;4.00;2.47;;;8.80;99.90;;;;;;4995021;28;20717;-94
2021/11/21 04:42:42;;;;;;;3.83;1.77;;;8.80;99.90;;;;;;4994424;28;20837;-94
2021/11/21 04:45:08;;;;;;;7.17;3.10;;;8.90;99.90;;;;;;4995334;28;20506;-96
2021/11/21 04:47:34;;;;;;;3.60;1.80;;;8.80;99.90;;;;;;4999726;28;20473;-96
2021/11/21 04:50:00;;;;;;;2.73;2.07;;;8.80;99.90;;;;;;4998802;28;20919;-96
2021/11/21 04:52:26;;;;;;;4.10;2.20;;;8.80;99.90;;;;;;5000310;28;20185;-96
2021/11/21 04:54:51;;;;;;;3.10;1.77;;;8.80;99.90;;;;;;4987408;28;20418;-96
2021/11/21 04:57:17;;;;;;;4.27;1.67;;;8.80;99.90;;;;;;5005375;28;20230;-94
2021/11/21 04:59:43;;;;;;;2.73;1.40;;;8.80;99.90;;;;;;5005292;28;20183;-96
2021/11/21 05:02:09;;;;;;;5.20;1.73;;;8.80;99.90;;;;;;5004728;28;20466;-95
2021/11/21 05:04:35;;;;;;;2.27;1.30;;;8.80;99.90;;;;;;5005603;28;20274;-96
2021/11/21 05:07:00;;;;;;;3.70;1.70;;;8.80;99.90;;;;;;5005431;28;20475;-95
2021/11/21 05:09:26;;;;;;;2.40;1.30;;;8.80;99.90;;;;;;5004479;28;20187;-96
2021/11/21 05:11:52;;;;;;;2.23;0.77;;;8.80;99.90;;;;;;5003401;28;20264;-95
2021/11/21 05:14:19;;;;;;;2.40;1.10;;;8.70;99.90;;;;;;5000018;28;20179;-96
2021/11/21 05:16:45;;;;;;;5.63;0.73;;;8.70;99.90;;;;;;5000549;28;20415;-96
2021/11/21 05:19:11;;;;;;;4.20;1.30;;;8.70;99.90;;;;;;5000753;28;20760;-96
2021/11/21 05:21:36;;;;;;;1.50;0.47;;;8.70;99.90;;;;;;5001017;28;20526;-96
2021/11/21 05:24:02;;;;;;;2.87;1.30;;;8.70;99.90;;;;;;4999795;28;20178;-96
2021/11/21 05:26:28;;;;;;;2.93;0.93;;;8.70;99.90;;;;;;4999883;28;20675;-96
2021/11/21 05:28:54;;;;;;;2.30;0.50;;;8.70;99.90;;;;;;4999871;28;20178;-96
2021/11/21 05:31:21;;;;;;;4.63;0.83;;;8.70;99.90;;;;;;5001433;28;20941;-95
2021/11/21 05:33:46;;;;;;;4.70;0.60;;;8.70;99.90;;;;;;5002236;28;20421;-94
2021/11/21 05:36:12;;;;;;;5.17;0.70;;;8.60;99.90;;;;;;5002442;28;20428;-93
2021/11/21 05:38:38;;;;;;;2.13;0.90;;;8.60;99.90;;;;;;5004220;28;20211;-94
2021/11/21 05:41:04;;;;;;;2.30;0.90;;;8.60;99.90;;;;;;5005366;28;20418;-93
2021/11/21 05:43:29;;;;;;;2.83;0.77;;;8.60;99.90;;;;;;5005475;28;20248;-95
2021/11/21 05:45:55;;;;;;;2.83;0.73;;;8.60;99.90;;;;;;5007435;28;20190;-95
2021/11/21 05:48:21;;;;;;;1.40;0.53;;;8.60;99.90;;;;;;5006358;28;20687;-95
2021/11/21 05:50:47;;;;;;;3.23;0.97;;;8.70;99.90;;;;;;5005269;28;20189;-89
2021/11/21 05:53:15;;;;;;;1.90;0.60;;;8.60;99.90;;;;;;5011846;28;20425;-95
2021/11/21 05:55:41;;;;;;;2.60;0.90;;;8.70;99.90;;;;;;5011556;28;20167;-94
2021/11/21 05:58:06;;;;;;;6.37;1.20;;;8.70;99.90;;;;;;5006776;28;20553;-92
2021/11/21 06:00:32;;;;;;;7.77;2.03;;;8.70;99.90;;;;;;5012255;28;20222;-93
2021/11/21 06:02:59;;;;;;;6.53;0.97;;;8.70;99.90;;;;;;5014523;28;20171;-86
2021/11/21 06:05:25;;;;;;;4.87;0.60;;;8.60;99.90;;;;;;5018621;28;20162;-86
2021/11/21 06:07:50;;;;;;;4.53;0.83;;;8.60;99.90;;;;;;5019758;28;20429;-89
2021/11/21 06:10:16;;;;;;;6.20;1.23;;;8.60;99.90;;;;;;5019499;28;20397;-84
2021/11/21 06:12:42;;;;;;;7.30;1.53;;;8.60;99.90;;;;;;5019687;28;20175;-93
2021/11/21 06:15:10;;;;;;;4.60;0.60;;;8.60;99.90;;;;;;5003952;28;20175;-95
2021/11/21 06:17:36;;;;;;;4.47;0.80;;;8.60;99.90;;;;;;5001937;28;20561;-94
2021/11/21 06:20:02;;;;;;;3.13;1.00;;;8.50;99.90;;;;;;5003774;28;20437;-94
2021/11/21 06:22:28;;;;;;;1.47;0.30;;;8.50;99.90;;;;;;5005794;28;20425;-93
2021/11/21 06:24:54;;;;;;;8.07;1.50;;;8.50;99.90;;;;;;5000853;28;20425;-95
2021/11/21 06:27:19;;;;;;;6.70;1.30;;;8.40;99.90;;;;;;5004741;28;20542;-95
2021/11/21 06:29:45;;;;;;;3.97;1.23;;;8.40;99.90;;;;;;5002982;28;20168;-96
2021/11/21 06:32:11;;;;;;;5.80;1.10;;;8.40;99.90;;;;;;5004037;28;20544;-96
2021/11/21 06:34:37;;;;;;;8.57;0.70;;;8.40;99.90;;;;;;5005057;28;20178;-96
2021/11/21 06:37:04;;;;;;;9.00;1.20;;;8.40;99.90;;;;;;5006251;28;20210;-87
2021/11/21 06:39:31;;;;;;;8.17;1.57;;;8.40;99.90;;;;;;5005944;28;20436;-95
2021/11/21 06:41:56;;;;;;;8.77;1.80;;;8.40;99.90;;;;;;5005879;28;20431;-96
2021/11/21 06:44:22;;;;;;;4.40;1.30;;;8.30;99.90;;;;;;5006442;28;20804;-89
2021/11/21 06:46:48;;;;;;;6.90;0.73;;;8.30;99.90;;;;;;5007280;28;20627;-94
2021/11/21 06:49:13;;;;;;;7.00;0.97;;;8.30;99.90;;;;;;5009676;28;20185;-95
2021/11/21 06:51:42;;;;;;;5.37;1.10;;;8.30;99.90;;;;;;5006216;28;20178;-93
2021/11/21 06:54:08;;;;;;;5.07;0.90;;;8.20;99.90;;;;;;5006519;28;20181;-93
2021/11/21 06:56:34;;;;;;;6.30;0.87;;;8.20;99.90;;;;;;5002516;28;20936;-96
2021/11/21 06:59:00;;;;;;;4.63;0.80;;;8.20;99.90;;;;;;5003734;28;20422;-95
2021/11/21 07:01:25;;;;;;;2.87;1.10;;;8.20;99.90;;;;;;5007511;28;20673;-95
2021/11/21 07:03:51;;;;;;;6.83;1.40;;;8.20;99.90;;;;;;5008163;28;20178;-92
2021/11/21 07:06:36;;;;;;;2.07;0.47;;;8.20;99.90;;;;;;5005296;28;20258;-89
2021/11/21 07:09:04;;;;;;;10.03;2.30;;;8.20;99.90;;;;;;5004674;28;20183;-95
2021/11/21 07:11:30;;;;;;;6.10;0.93;;;8.20;99.90;;;;;;5004016;28;20414;-94
2021/11/21 07:13:55;;;;;;;6.53;0.50;;;8.20;99.90;;;;;;4984919;28;21041;-96
2021/11/21 07:16:21;;;;;;;5.07;0.80;;;8.20;99.90;;;;;;5000997;28;20183;-95
2021/11/21 07:18:47;;;;;;;6.70;0.80;;;8.20;99.90;;;;;;5002153;28;20990;-92
2021/11/21 07:21:14;;;;;;;6.27;1.27;;;8.30;99.90;;;;;;5003053;28;20266;-95
2021/11/21 07:23:40;;;;;;;10.20;1.83;;;8.20;99.90;;;;;;5005534;28;20434;-94
2021/11/21 07:26:06;;;;;;;6.43;1.57;;;8.30;99.90;;;;;;5002135;28;20800;-95
2021/11/21 07:28:32;;;;;;;8.03;1.20;;;8.30;99.90;;;;;;5002429;28;20265;-94
2021/11/21 07:30:58;;;;;;;6.83;0.90;;;8.30;99.90;;;;;;5005870;28;20472;-93
2021/11/21 07:33:24;;;;;;;4.90;1.03;;;8.30;99.90;;;;;;5004480;28;20194;-95
2021/11/21 07:35:52;;;;;;;6.57;1.50;;;8.30;99.90;;;;;;5004233;28;20423;-95
2021/11/21 07:38:19;;;;;;;6.93;0.40;;;8.30;99.90;;;;;;5004742;28;20541;-94
2021/11/21 07:40:45;;;;;;;7.40;1.03;;;8.30;99.90;;;;;;5004607;28;20448;-93
2021/11/21 07:43:11;;;;;;;5.47;0.87;;;8.30;99.90;;;;;;5004181;28;20416;-95
2021/11/21 07:45:37;;;;;;;4.93;1.13;;;8.40;99.90;;;;;;4999670;28;20434;-95
2021/11/21 07:48:03;;;;;;;5.70;1.17;;;8.40;99.90;;;;;;4996440;28;20416;-93
2021/11/21 07:50:29;;;;;;;2.70;0.77;;;8.40;99.90;;;;;;4994678;28;20528;-95
2021/11/21 07:52:55;;;;;;;7.20;1.57;;;8.50;99.90;;;;;;4996171;28;20426;-96
2021/11/21 07:55:20;;;;;;;8.70;1.87;;;8.50;99.90;;;;;;4996310;28;20177;-95
2021/11/21 07:57:46;;;;;;;6.20;1.70;;;8.60;99.90;;;;;;4997839;28;20248;-94
2021/11/21 08:00:13;;;;;;;5.30;1.30;;;8.50;99.90;;;;;;4996474;28;20206;-95
2021/11/21 08:02:39;;;;;;;2.60;1.37;;;8.60;99.90;;;;;;4996243;28;20178;-95
2021/11/21 08:05:05;;;;;;;6.67;1.07;;;8.60;99.90;;;;;;4996503;28;20441;-94
2021/11/21 08:07:31;;;;;;;3.70;1.70;;;8.60;99.90;;;;;;4997039;28;20579;-95
2021/11/21 08:09:57;;;;;;;4.43;1.20;;;8.70;99.90;;;;;;4996017;28;20422;-94
2021/11/21 08:12:23;;;;;;;6.40;1.30;;;8.70;99.90;;;;;;4980149;28;20802;-94
2021/11/21 08:14:48;;;;;;;5.60;1.37;;;8.70;99.90;;;;;;4997962;28;20624;-96
2021/11/21 08:17:14;;;;;;;3.53;0.77;;;8.80;99.90;;;;;;4996059;28;20225;-95
2021/11/21 08:19:39;;;;;;;4.70;1.57;;;8.80;99.90;;;;;;4995912;28;20238;-94
2021/11/21 08:22:05;;;;;;;7.47;1.67;;;8.90;99.90;;;;;;4994969;28;20388;-95
2021/11/21 08:24:31;;;;;;;2.90;1.13;;;9.00;99.90;;;;;;4995780;28;20203;-95
2021/11/21 08:26:57;;;;;;;7.20;1.93;;;9.10;99.90;;;;;;4993187;28;20184;-94
2021/11/21 08:29:23;;;;;;;10.13;1.70;;;9.20;99.90;;;;;;4995038;28;20204;-92
2021/11/21 08:31:50;;;;;;;5.07;1.20;;;9.30;99.90;;;;;;4994938;28;20458;-93
2021/11/21 08:34:16;;;;;;;3.70;1.43;;;9.50;99.90;;;;;;4994765;28;20173;-95
2021/11/21 08:36:43;;;;;;;5.17;1.20;;;9.80;99.90;;;;;;4995051;28;20424;-94
2021/11/21 08:39:08;;;;;;;8.67;3.10;;;9.90;99.90;;;;;;4994841;28;20417;-93
2021/11/21 08:41:34;;;;;;;4.93;1.00;;;10.00;99.90;;;;;;4994680;28;20434;-91
2021/11/21 08:43:59;;;;;;;4.57;0.90;;;10.00;99.90;;;;;;4994899;28;20529;-89
2021/11/21 08:46:26;;;;;;;5.60;1.10;;;10.30;99.90;;;;;;4996468;28;20169;-94
2021/11/21 08:48:52;;;;;;;4.10;0.90;;;10.10;99.90;;;;;;4994620;28;20180;-94
2021/11/21 08:51:18;;;;;;;3.33;0.83;;;10.00;99.90;;;;;;4994750;28;20551;-93
2021/11/21 08:53:46;;;;;;;5.67;1.30;;;9.90;99.90;;;;;;4994528;28;20856;-93
2021/11/21 08:56:13;;;;;;;5.30;1.27;;;10.10;99.90;;;;;;4994564;28;20224;-93
2021/11/21 08:58:39;;;;;;;9.00;0.80;;;10.20;99.90;;;;;;4994110;28;20494;-94
2021/11/21 09:01:05;;;;;;;5.40;1.43;;;10.90;99.90;;;;;;4991602;28;20888;-83
2021/11/21 09:03:30;;;;;;;2.00;0.70;;;12.10;99.90;;;;;;4992657;28;20238;-84
2021/11/21 09:05:59;;;;;;;2.70;0.93;;;13.60;99.90;;;;;;4993883;28;20180;-93
2021/11/21 09:08:26;;;;;;;6.40;1.80;;;12.50;99.90;;;;;;4993842;28;20231;-93
2021/11/21 09:10:55;;;;;;;6.23;0.63;;;12.00;99.90;;;;;;4976296;28;20422;-93
2021/11/21 09:13:21;;;;;;;3.73;1.33;;;11.20;99.90;;;;;;4993700;28;20411;-91
2021/11/21 09:15:46;;;;;;;6.77;0.77;;;10.50;99.90;;;;;;4994264;28;20466;-86
2021/11/21 09:18:12;;;;;;;3.47;0.50;;;10.00;99.90;;;;;;4993819;28;20989;-90
2021/11/21 09:20:38;;;;;;;1.27;0.67;;;9.60;99.90;;;;;;4993786;28;20183;-93
2021/11/21 09:23:09;;;;;;;4.13;0.40;;;9.40;99.90;;;;;;4993818;28;20187;-91
2021/11/21 09:25:35;;;;;;;6.37;2.13;;;9.30;99.90;;;;;;4994069;28;20884;-91
2021/11/21 09:28:00;;;;;;;7.27;0.80;;;9.80;99.90;;;;;;4993318;28;20423;-90
2021/11/21 09:30:26;;;;;;;3.60;0.73;;;10.90;99.90;;;;;;4993935;28;20622;-90
2021/11/21 09:32:52;;;;;;;5.10;0.90;;;10.90;99.90;;;;;;4993836;28;20254;-92
2021/11/21 09:35:18;;;;;;;6.17;1.53;;;11.50;99.90;;;;;;4993823;28;20176;-87
2021/11/21 09:37:44;;;;;;;6.57;1.70;;;11.50;99.90;;;;;;4992829;28;20480;-87
2021/11/21 09:40:12;;;;;;;5.37;0.83;;;10.90;99.90;;;;;;4997095;28;20428;-94
2021/11/21 09:42:38;;;;;;;4.83;0.60;;;11.40;99.90;;;;;;4996699;28;20556;-91
2021/11/21 09:45:06;;;;;;;6.70;1.67;;;11.60;99.90;;;;;;4997269;28;20421;-92
2021/11/21 09:47:31;;;;;;;7.27;1.10;;;12.60;99.90;;;;;;4997372;28;20480;-91
2021/11/21 09:50:11;;;;;;;5.30;1.00;;;13.20;99.90;;;;;;4997148;28;20852;-90
2021/11/21 09:52:37;;;;;;;4.67;0.53;;;13.30;99.90;;;;;;4996938;28;20177;-91
2021/11/21 09:55:05;;;;;;;3.73;0.67;;;13.10;99.90;;;;;;4996677;28;20503;-90
2021/11/21 09:57:32;;;;;;;6.97;0.60;;;12.50;99.90;;;;;;4996402;28;20222;-86
2021/11/21 10:00:08;;;;;;;6.50;1.27;;;12.70;99.90;;;;;;4996940;28;20523;-91
2021/11/21 10:02:59;;;;;;;5.50;0.63;;;12.30;99.90;;;;;;4996667;28;21005;-92
2021/11/21 10:05:29;;;;;;;5.00;0.50;;;12.10;99.90;;;;;;4996524;28;20448;-91
2021/11/21 10:08:06;;;;;;;6.53;1.10;;;11.90;99.90;;;;;;4998153;28;20490;-92
2021/11/21 10:10:44;;;;;;;9.30;1.70;;;11.50;99.90;;;;;;4997000;28;20519;-91
2021/11/21 10:13:37;;;;;;;4.90;0.70;;;11.60;99.90;;;;;;4996360;28;20953;-92
2021/11/21 10:16:17;;;;;;;5.20;0.70;;;11.80;99.90;;;;;;4997452;28;20458;-92
2021/11/21 10:19:08;;;;;;;4.47;0.40;;;11.90;99.90;;;;;;4996875;28;20489;-92
2021/11/21 10:21:55;;;;;;;8.17;1.13;;;11.60;99.90;;;;;;4991852;28;20436;-93
2021/11/21 10:24:28;;;;;;;3.37;0.67;;;11.00;99.90;;;;;;4996557;28;20451;-93
2021/11/21 10:27:12;;;;;;;5.10;0.67;;;11.00;99.90;;;;;;4996627;28;20400;-87
2021/11/21 10:29:40;;;;;;;6.30;0.67;;;11.40;99.90;;;;;;4996219;28;20938;-94
2021/11/21 10:32:20;;;;;;;6.83;1.63;;;12.00;99.90;;;;;;4996501;28;20499;-93
2021/11/21 10:34:54;;;;;;;2.93;0.80;;;12.40;99.90;;;;;;4996360;28;20544;-90
2021/11/21 10:37:31;;;;;;;6.00;1.37;;;13.00;99.90;;;;;;4996235;28;20460;-88
2021/11/21 10:40:17;;;;;;;6.10;0.70;;;13.30;99.90;;;;;;4996805;28;20418;-86
2021/11/21 10:42:46;;;;;;;3.93;1.13;;;13.10;99.90;;;;;;4997026;28;20424;-88
2021/11/21 10:45:18;;;;;;;4.57;1.10;;;13.10;99.90;;;;;;4995508;28;20430;-92
2021/11/21 10:47:49;;;;;;;3.60;0.40;;;13.20;99.90;;;;;;4996906;28;20815;-91
2021/11/21 10:50:36;;;;;;;7.00;1.17;;;12.50;99.90;;;;;;4995174;28;20413;-91
2021/11/21 10:53:07;;;;;;;4.50;1.13;;;12.10;99.90;;;;;;4996430;28;20421;-91
2021/11/21 10:55:33;;;;;;;8.03;0.97;;;11.80;99.90;;;;;;4996473;28;20392;-86
2021/11/21 10:58:10;;;;;;;3.53;0.50;;;11.20;99.90;;;;;;4995659;28;20478;-91
2021/11/21 11:00:36;;;;;;;4.27;0.77;;;11.50;99.90;;;;;;4996962;28;20499;-92
2021/11/21 11:03:01;;;;;;;4.23;1.00;;;14.40;99.90;;;;;;4995866;28;20421;-89
2021/11/21 11:05:27;;;;;;;4.00;0.80;;;13.40;99.90;;;;;;4995568;28;20445;-91
2021/11/21 11:07:56;;;;;;;4.17;0.30;;;14.10;99.90;;;;;;4997243;28;20181;-90
2021/11/21 11:10:30;;;;;;;1.57;0.30;;;14.20;99.90;;;;;;4996128;28;20261;-88
2021/11/21 11:13:06;;;;;;;2.67;0.33;;;13.60;99.90;;;;;;4995073;28;20433;-85
2021/11/21 11:15:34;;;;;;;4.00;0.47;;;14.90;99.90;;;;;;4995115;28;20468;-90
2021/11/21 11:18:00;;;;;;;1.07;0.33;;;16.20;99.90;;;;;;4996462;28;20523;-91
2021/11/21 11:20:27;;;;;;;0.90;0.20;;;15.70;99.90;;;;;;4978333;28;20516;-88
2021/11/21 11:22:54;;;;;;;2.23;0.93;;;15.70;99.90;;;;;;4995554;28;20182;-88
2021/11/21 11:25:26;;;;;;;3.40;0.40;;;15.30;99.90;;;;;;4995863;28;20753;-92
2021/11/21 11:27:54;;;;;;;2.27;0.40;;;15.70;99.90;;;;;;4994102;28;20440;-91
2021/11/21 11:30:30;;;;;;;1.47;0.20;;;16.40;99.90;;;;;;4995693;28;20415;-93
2021/11/21 11:33:14;;;;;;;2.40;0.63;;;17.00;99.90;;;;;;4995159;28;20426;-82
2021/11/21 11:35:45;;;;;;;2.10;0.60;;;17.60;97.80;;;;;;4995383;28;20419;-87
2021/11/21 11:38:30;;;;;;;5.87;0.70;;;17.10;97.20;;;;;;4995800;28;20470;-87
2021/11/21 11:41:01;;;;;;;2.00;0.53;;;16.10;99.90;;;;;;4994823;28;20441;-90
2021/11/21 11:43:42;;;;;;;3.80;1.60;;;14.80;99.90;;;;;;4994754;28;20411;-89
2021/11/21 11:46:14;;;;;;;3.73;1.27;;;13.40;99.90;;;;;;4995095;28;20944;-91
2021/11/21 11:48:45;;;;;;;3.50;1.50;;;14.40;99.90;;;;;;4995562;28;20823;-91
2021/11/21 11:51:27;;;;;;;8.47;1.47;;;13.70;99.90;;;;;;4995238;28;20403;-90
2021/11/21 11:54:01;;;;;;;4.67;0.60;;;13.90;99.90;;;;;;4995249;28;20469;-91
2021/11/21 11:56:46;;;;;;;3.00;0.60;;;12.90;99.90;;;;;;4994956;28;20491;-92
2021/11/21 11:59:29;;;;;;;3.90;0.83;;;15.40;99.90;;;;;;4992493;28;20451;-87
2021/11/21 12:01:59;;;;;;;5.63;0.57;;;15.00;99.90;;;;;;4985192;28;20466;-90
2021/11/21 12:04:25;;;;;;;2.30;0.90;;;13.90;99.90;;;;;;4994895;28;20427;-92
2021/11/21 12:06:54;;;;;;;4.97;0.97;;;13.40;99.90;;;;;;4994752;28;20500;-91
2021/11/21 12:09:21;;;;;;;5.10;1.10;;;12.70;99.90;;;;;;4995160;28;20418;-90
2021/11/21 12:12:00;;;;;;;4.20;1.03;;;12.50;99.90;;;;;;4995252;28;20416;-90
2021/11/21 12:14:35;;;;;;;6.90;1.00;;;12.40;99.90;;;;;;4994637;28;20421;-85
2021/11/21 12:17:14;;;;;;;8.23;0.93;;;12.00;99.90;;;;;;4995036;28;20765;-90
2021/11/21 12:19:44;;;;;;;8.60;1.10;;;12.00;99.90;;;;;;4994951;28;20415;-89
2021/11/21 12:22:34;;;;;;;9.63;1.57;;;11.90;99.90;;;;;;4994767;28;20444;-90
2021/11/21 12:25:10;;;;;;;7.37;1.27;;;11.80;99.90;;;;;;4995057;28;20418;-91
2021/11/21 12:27:44;;;;;;;4.70;0.30;;;12.30;99.90;;;;;;4995686;28;20418;-90
2021/11/21 12:30:13;;;;;;;5.77;0.40;;;11.90;99.90;;;;;;4999930;28;20447;-90
2021/11/21 12:32:50;;;;;;;4.70;1.03;;;11.60;99.90;;;;;;5009440;28;20423;-82
2021/11/21 12:35:48;;;;;;;7.00;1.67;;;12.20;99.90;;;;;;4991360;28;20463;-82
2021/11/21 12:38:19;;;;;;;5.33;0.70;;;12.60;99.90;;;;;;5006689;28;20476;-85
2021/11/21 12:40:53;;;;;;;3.90;0.67;;;12.80;99.90;;;;;;5010361;28;20421;-82
2021/11/21 12:43:21;;;;;;;4.50;1.07;;;12.80;99.90;;;;;;5010830;28;20472;-83
2021/11/21 12:45:49;;;;;;;2.80;0.67;;;12.50;99.90;;;;;;4996905;28;20425;-89
2021/11/21 12:48:16;;;;;;;4.47;0.57;;;12.30;99.90;;;;;;4977159;28;20777;-90
2021/11/21 12:50:51;;;;;;;6.30;0.97;;;12.40;99.90;;;;;;4994380;28;21050;-90
2021/11/21 12:53:37;;;;;;;3.53;0.30;;;12.40;99.90;;;;;;4994177;28;20509;-89
2021/11/21 12:56:13;;;;;;;1.63;0.30;;;12.00;99.90;;;;;;4972342;28;20542;-88
2021/11/21 12:58:44;;;;;;;3.00;0.20;;;11.90;99.90;;;;;;4974373;28;20506;-85